sensor_id;sensor_type;location;lat;lon;timestamp;P1;durP1;ratioP1;P2;durP2;ratioP2
55067;SDS011;40965;52.368;9.712;2023-02-19T00:01:34;6.22;;;4.82;;
55067;SDS011;40965;52.368;9.712;2023-02-19T00:04:10;9.13;;;4.55;;
55067;SDS011;40965;52.368;9.712;2023-02-19T00:06:41;11.73;;;5.90;;
55067;SDS011;40965;52.368;9.712;2023-02-19T00:09:10;7.30;;;4.22;;
55067;SDS011;40965;52.368;9.712;2023-02-19T00:11:38;7.10;;;3.60;;
55067;SDS011;40965;52.368;9.712;2023-02-19T00:14:05;7.82;;;4.20;;
55067;SDS011;40965;52.368;9.712;2023-02-19T00:16:34;7.10;;;4.68;;
55067;SDS011;40965;52.368;9.712;2023-02-19T00:19:03;5.68;;;4.10;;
55067;SDS011;40965;52.368;9.712;2023-02-19T00:21:34;7.97;;;4.85;;
55067;SDS011;40965;52.368;9.712;2023-02-19T00:24:02;9.30;;;4.70;;
55067;SDS011;40965;52.368;9.712;2023-02-19T00:26:31;7.65;;;4.25;;
55067;SDS011;40965;52.368;9.712;2023-02-19T00:28:58;15.93;;;5.28;;
55067;SDS011;40965;52.368;9.712;2023-02-19T00:31:27;8.32;;;4.53;;
55067;SDS011;40965;52.368;9.712;2023-02-19T00:33:58;7.90;;;4.47;;
55067;SDS011;40965;52.368;9.712;2023-02-19T00:36:27;11.77;;;4.55;;
55067;SDS011;40965;52.368;9.712;2023-02-19T00:38:54;7.80;;;3.78;;
55067;SDS011;40965;52.368;9.712;2023-02-19T00:41:22;11.15;;;4.38;;
55067;SDS011;40965;52.368;9.712;2023-02-19T00:43:51;13.77;;;5.70;;
55067;SDS011;40965;52.368;9.712;2023-02-19T00:46:24;12.65;;;5.97;;
55067;SDS011;40965;52.368;9.712;2023-02-19T00:48:54;13.57;;;6.60;;
55067;SDS011;40965;52.368;9.712;2023-02-19T00:51:22;10.95;;;7.10;;
55067;SDS011;40965;52.368;9.712;2023-02-19T00:53:52;10.05;;;6.72;;
55067;SDS011;40965;52.368;9.712;2023-02-19T00:56:18;16.65;;;7.82;;
55067;SDS011;40965;52.368;9.712;2023-02-19T00:58:46;12.50;;;7.60;;
55067;SDS011;40965;52.368;9.712;2023-02-19T01:01:13;11.75;;;8.20;;
55067;SDS011;40965;52.368;9.712;2023-02-19T01:03:41;13.55;;;8.35;;
55067;SDS011;40965;52.368;9.712;2023-02-19T01:06:09;15.63;;;10.13;;
55067;SDS011;40965;52.368;9.712;2023-02-19T01:08:39;18.35;;;10.30;;
55067;SDS011;40965;52.368;9.712;2023-02-19T01:11:07;18.00;;;10.32;;
55067;SDS011;40965;52.368;9.712;2023-02-19T01:13:34;17.23;;;11.15;;
55067;SDS011;40965;52.368;9.712;2023-02-19T01:16:15;15.40;;;10.55;;
55067;SDS011;40965;52.368;9.712;2023-02-19T01:18:45;20.97;;;11.77;;
55067;SDS011;40965;52.368;9.712;2023-02-19T01:21:12;19.50;;;12.38;;
55067;SDS011;40965;52.368;9.712;2023-02-19T01:26:18;24.00;;;12.57;;
55067;SDS011;40965;52.368;9.712;2023-02-19T01:28:47;14.45;;;9.50;;
55067;SDS011;40965;52.368;9.712;2023-02-19T01:31:15;17.08;;;8.02;;
55067;SDS011;40965;52.368;9.712;2023-02-19T01:33:45;10.77;;;7.53;;
55067;SDS011;40965;52.368;9.712;2023-02-19T01:36:16;6.70;;;4.32;;
55067;SDS011;40965;52.368;9.712;2023-02-19T01:38:43;5.95;;;2.75;;
55067;SDS011;40965;52.368;9.712;2023-02-19T01:41:15;4.60;;;2.78;;
55067;SDS011;40965;52.368;9.712;2023-02-19T01:46:52;3.78;;;1.77;;
55067;SDS011;40965;52.368;9.712;2023-02-19T01:49:31;1.13;;;1.13;;
55067;SDS011;40965;52.368;9.712;2023-02-19T01:52:06;1.17;;;1.08;;
55067;SDS011;40965;52.368;9.712;2023-02-19T01:54:43;2.38;;;0.90;;
55067;SDS011;40965;52.368;9.712;2023-02-19T01:57:12;1.10;;;1.00;;
55067;SDS011;40965;52.368;9.712;2023-02-19T01:59:50;0.65;;;0.65;;
55067;SDS011;40965;52.368;9.712;2023-02-19T02:02:23;0.95;;;0.68;;
55067;SDS011;40965;52.368;9.712;2023-02-19T02:04:52;1.95;;;0.52;;
55067;SDS011;40965;52.368;9.712;2023-02-19T02:07:21;1.38;;;1.02;;
55067;SDS011;40965;52.368;9.712;2023-02-19T02:12:48;3.55;;;0.52;;
55067;SDS011;40965;52.368;9.712;2023-02-19T02:15:17;1.85;;;0.55;;
55067;SDS011;40965;52.368;9.712;2023-02-19T02:17:55;0.70;;;0.70;;
55067;SDS011;40965;52.368;9.712;2023-02-19T02:20:57;1.35;;;0.95;;
55067;SDS011;40965;52.368;9.712;2023-02-19T02:36:16;2.53;;;1.38;;
55067;SDS011;40965;52.368;9.712;2023-02-19T02:38:48;3.25;;;2.30;;
55067;SDS011;40965;52.368;9.712;2023-02-19T02:41:17;4.32;;;2.58;;
55067;SDS011;40965;52.368;9.712;2023-02-19T02:43:43;4.32;;;2.10;;
55067;SDS011;40965;52.368;9.712;2023-02-19T02:46:10;3.13;;;2.22;;
55067;SDS011;40965;52.368;9.712;2023-02-19T02:48:40;8.10;;;3.60;;
55067;SDS011;40965;52.368;9.712;2023-02-19T02:51:24;6.32;;;4.25;;
55067;SDS011;40965;52.368;9.712;2023-02-19T02:54:03;8.30;;;4.93;;
55067;SDS011;40965;52.368;9.712;2023-02-19T02:57:03;9.77;;;6.82;;
55067;SDS011;40965;52.368;9.712;2023-02-19T02:59:35;17.13;;;7.45;;
55067;SDS011;40965;52.368;9.712;2023-02-19T03:02:06;11.73;;;7.72;;
55067;SDS011;40965;52.368;9.712;2023-02-19T03:04:44;17.23;;;8.73;;
55067;SDS011;40965;52.368;9.712;2023-02-19T03:07:45;15.20;;;8.68;;
55067;SDS011;40965;52.368;9.712;2023-02-19T03:10:22;13.30;;;8.35;;
55067;SDS011;40965;52.368;9.712;2023-02-19T03:12:56;14.00;;;7.45;;
55067;SDS011;40965;52.368;9.712;2023-02-19T03:15:46;14.93;;;7.13;;
55067;SDS011;40965;52.368;9.712;2023-02-19T03:18:37;16.15;;;8.48;;
55067;SDS011;40965;52.368;9.712;2023-02-19T03:21:26;9.43;;;5.38;;
55067;SDS011;40965;52.368;9.712;2023-02-19T03:23:54;8.05;;;4.43;;
55067;SDS011;40965;52.368;9.712;2023-02-19T03:26:39;2.53;;;2.00;;
55067;SDS011;40965;52.368;9.712;2023-02-19T03:29:09;1.67;;;0.98;;
55067;SDS011;40965;52.368;9.712;2023-02-19T03:31:51;1.55;;;0.98;;
55067;SDS011;40965;52.368;9.712;2023-02-19T03:34:29;1.30;;;0.88;;
55067;SDS011;40965;52.368;9.712;2023-02-19T03:37:12;0.68;;;0.30;;
55067;SDS011;40965;52.368;9.712;2023-02-19T03:39:55;0.75;;;0.75;;
55067;SDS011;40965;52.368;9.712;2023-02-19T03:51:11;0.98;;;0.50;;
55067;SDS011;40965;52.368;9.712;2023-02-19T03:56:44;0.90;;;0.30;;
55067;SDS011;40965;52.368;9.712;2023-02-19T04:02:10;0.43;;;0.43;;
55067;SDS011;40965;52.368;9.712;2023-02-19T04:04:49;0.35;;;0.35;;
55067;SDS011;40965;52.368;9.712;2023-02-19T04:07:21;0.68;;;0.50;;
55067;SDS011;40965;52.368;9.712;2023-02-19T04:09:48;0.63;;;0.35;;
55067;SDS011;40965;52.368;9.712;2023-02-19T04:12:16;0.50;;;0.32;;
55067;SDS011;40965;52.368;9.712;2023-02-19T04:14:46;3.30;;;0.22;;
55067;SDS011;40965;52.368;9.712;2023-02-19T04:17:23;0.68;;;0.55;;
55067;SDS011;40965;52.368;9.712;2023-02-19T04:19:58;0.35;;;0.35;;
55067;SDS011;40965;52.368;9.712;2023-02-19T04:22:32;0.55;;;0.55;;
55067;SDS011;40965;52.368;9.712;2023-02-19T04:25:02;0.30;;;0.30;;
55067;SDS011;40965;52.368;9.712;2023-02-19T04:27:28;0.38;;;0.38;;
55067;SDS011;40965;52.368;9.712;2023-02-19T04:29:58;0.50;;;0.50;;
55067;SDS011;40965;52.368;9.712;2023-02-19T04:32:25;0.30;;;0.30;;
55067;SDS011;40965;52.368;9.712;2023-02-19T04:34:51;1.85;;;0.30;;
55067;SDS011;40965;52.368;9.712;2023-02-19T04:37:18;0.50;;;0.38;;
55067;SDS011;40965;52.368;9.712;2023-02-19T04:39:44;0.65;;;0.47;;
55067;SDS011;40965;52.368;9.712;2023-02-19T04:42:11;0.50;;;0.50;;
55067;SDS011;40965;52.368;9.712;2023-02-19T04:44:37;0.50;;;0.38;;
55067;SDS011;40965;52.368;9.712;2023-02-19T04:47:04;0.50;;;0.47;;
55067;SDS011;40965;52.368;9.712;2023-02-19T04:49:30;0.65;;;0.45;;
55067;SDS011;40965;52.368;9.712;2023-02-19T04:51:57;0.38;;;0.30;;
55067;SDS011;40965;52.368;9.712;2023-02-19T04:54:23;0.10;;;0.10;;
55067;SDS011;40965;52.368;9.712;2023-02-19T04:56:50;0.40;;;0.20;;
55067;SDS011;40965;52.368;9.712;2023-02-19T04:59:16;0.98;;;0.40;;
55067;SDS011;40965;52.368;9.712;2023-02-19T05:01:43;0.30;;;0.20;;
55067;SDS011;40965;52.368;9.712;2023-02-19T05:04:09;0.57;;;0.55;;
55067;SDS011;40965;52.368;9.712;2023-02-19T05:06:36;1.08;;;0.20;;
55067;SDS011;40965;52.368;9.712;2023-02-19T05:09:02;0.50;;;0.25;;
55067;SDS011;40965;52.368;9.712;2023-02-19T05:11:29;0.30;;;0.30;;
55067;SDS011;40965;52.368;9.712;2023-02-19T05:13:55;0.10;;;0.10;;
55067;SDS011;40965;52.368;9.712;2023-02-19T05:16:22;0.20;;;0.20;;
55067;SDS011;40965;52.368;9.712;2023-02-19T05:18:48;1.20;;;0.80;;
55067;SDS011;40965;52.368;9.712;2023-02-19T05:21:15;0.20;;;0.20;;
55067;SDS011;40965;52.368;9.712;2023-02-19T05:23:42;0.60;;;0.20;;
55067;SDS011;40965;52.368;9.712;2023-02-19T05:26:13;0.22;;;0.20;;
55067;SDS011;40965;52.368;9.712;2023-02-19T05:28:46;1.00;;;0.22;;
55067;SDS011;40965;52.368;9.712;2023-02-19T05:31:17;0.10;;;0.10;;
55067;SDS011;40965;52.368;9.712;2023-02-19T05:33:45;0.10;;;0.10;;
55067;SDS011;40965;52.368;9.712;2023-02-19T05:36:14;0.30;;;0.30;;
55067;SDS011;40965;52.368;9.712;2023-02-19T05:38:42;1.98;;;0.30;;
55067;SDS011;40965;52.368;9.712;2023-02-19T05:41:13;0.20;;;0.20;;
55067;SDS011;40965;52.368;9.712;2023-02-19T05:43:43;0.47;;;0.30;;
55067;SDS011;40965;52.368;9.712;2023-02-19T05:46:12;0.20;;;0.20;;
55067;SDS011;40965;52.368;9.712;2023-02-19T05:48:42;0.82;;;0.35;;
55067;SDS011;40965;52.368;9.712;2023-02-19T05:51:10;0.47;;;0.40;;
55067;SDS011;40965;52.368;9.712;2023-02-19T05:53:39;1.00;;;0.70;;
55067;SDS011;40965;52.368;9.712;2023-02-19T05:59:10;1.25;;;0.40;;
55067;SDS011;40965;52.368;9.712;2023-02-19T06:01:39;0.53;;;0.40;;
55067;SDS011;40965;52.368;9.712;2023-02-19T06:04:06;1.92;;;0.40;;
55067;SDS011;40965;52.368;9.712;2023-02-19T06:06:35;0.65;;;0.43;;
55067;SDS011;40965;52.368;9.712;2023-02-19T06:09:02;2.22;;;0.73;;
55067;SDS011;40965;52.368;9.712;2023-02-19T06:11:30;0.45;;;0.45;;
55067;SDS011;40965;52.368;9.712;2023-02-19T06:13:57;1.40;;;1.00;;
55067;SDS011;40965;52.368;9.712;2023-02-19T06:16:23;1.10;;;0.50;;
55067;SDS011;40965;52.368;9.712;2023-02-19T06:18:50;0.63;;;0.50;;
55067;SDS011;40965;52.368;9.712;2023-02-19T06:21:16;1.02;;;0.30;;
55067;SDS011;40965;52.368;9.712;2023-02-19T06:23:43;0.80;;;0.20;;
55067;SDS011;40965;52.368;9.712;2023-02-19T06:26:15;2.83;;;0.60;;
55067;SDS011;40965;52.368;9.712;2023-02-19T06:28:46;1.13;;;0.55;;
55067;SDS011;40965;52.368;9.712;2023-02-19T06:31:15;0.57;;;0.30;;
55067;SDS011;40965;52.368;9.712;2023-02-19T06:33:43;0.47;;;0.47;;
55067;SDS011;40965;52.368;9.712;2023-02-19T06:36:11;0.55;;;0.55;;
55067;SDS011;40965;52.368;9.712;2023-02-19T06:38:43;1.80;;;0.47;;
55067;SDS011;40965;52.368;9.712;2023-02-19T06:41:10;4.15;;;0.40;;
55067;SDS011;40965;52.368;9.712;2023-02-19T06:43:37;0.50;;;0.40;;
55067;SDS011;40965;52.368;9.712;2023-02-19T06:46:04;0.63;;;0.57;;
55067;SDS011;40965;52.368;9.712;2023-02-19T06:48:33;1.38;;;0.60;;
55067;SDS011;40965;52.368;9.712;2023-02-19T06:51:00;0.40;;;0.40;;
55067;SDS011;40965;52.368;9.712;2023-02-19T06:53:27;3.10;;;0.90;;
55067;SDS011;40965;52.368;9.712;2023-02-19T06:55:55;1.45;;;0.65;;
55067;SDS011;40965;52.368;9.712;2023-02-19T06:58:24;0.40;;;0.40;;
55067;SDS011;40965;52.368;9.712;2023-02-19T07:00:50;1.05;;;0.77;;
55067;SDS011;40965;52.368;9.712;2023-02-19T07:03:17;1.80;;;1.05;;
55067;SDS011;40965;52.368;9.712;2023-02-19T07:05:44;4.22;;;1.40;;
55067;SDS011;40965;52.368;9.712;2023-02-19T07:08:10;0.93;;;0.90;;
55067;SDS011;40965;52.368;9.712;2023-02-19T07:10:37;0.88;;;0.88;;
55067;SDS011;40965;52.368;9.712;2023-02-19T07:13:04;1.40;;;1.10;;
55067;SDS011;40965;52.368;9.712;2023-02-19T07:15:31;1.13;;;1.02;;
55067;SDS011;40965;52.368;9.712;2023-02-19T07:17:57;1.35;;;0.93;;
55067;SDS011;40965;52.368;9.712;2023-02-19T07:20:24;2.42;;;1.27;;
55067;SDS011;40965;52.368;9.712;2023-02-19T07:22:51;1.48;;;1.38;;
55067;SDS011;40965;52.368;9.712;2023-02-19T07:25:18;4.32;;;1.02;;
55067;SDS011;40965;52.368;9.712;2023-02-19T07:27:45;1.65;;;1.23;;
55067;SDS011;40965;52.368;9.712;2023-02-19T07:30:24;1.15;;;1.05;;
55067;SDS011;40965;52.368;9.712;2023-02-19T07:32:56;1.83;;;1.10;;
55067;SDS011;40965;52.368;9.712;2023-02-19T07:35:32;1.15;;;1.02;;
55067;SDS011;40965;52.368;9.712;2023-02-19T07:38:16;1.58;;;1.27;;
55067;SDS011;40965;52.368;9.712;2023-02-19T07:40:53;1.55;;;1.40;;
55067;SDS011;40965;52.368;9.712;2023-02-19T07:43:23;3.53;;;2.05;;
55067;SDS011;40965;52.368;9.712;2023-02-19T07:45:51;5.45;;;2.35;;
55067;SDS011;40965;52.368;9.712;2023-02-19T07:48:18;2.20;;;1.83;;
55067;SDS011;40965;52.368;9.712;2023-02-19T07:50:51;2.92;;;2.20;;
55067;SDS011;40965;52.368;9.712;2023-02-19T07:53:18;2.38;;;2.17;;
55067;SDS011;40965;52.368;9.712;2023-02-19T07:55:46;2.67;;;2.30;;
55067;SDS011;40965;52.368;9.712;2023-02-19T07:58:13;3.25;;;2.58;;
55067;SDS011;40965;52.368;9.712;2023-02-19T08:00:39;4.93;;;2.35;;
55067;SDS011;40965;52.368;9.712;2023-02-19T08:03:06;3.63;;;2.47;;
55067;SDS011;40965;52.368;9.712;2023-02-19T08:05:38;3.15;;;2.30;;
55067;SDS011;40965;52.368;9.712;2023-02-19T08:08:15;2.42;;;2.08;;
55067;SDS011;40965;52.368;9.712;2023-02-19T08:10:42;2.65;;;1.58;;
55067;SDS011;40965;52.368;9.712;2023-02-19T08:13:27;3.08;;;2.22;;
55067;SDS011;40965;52.368;9.712;2023-02-19T08:18:29;2.97;;;2.53;;
55067;SDS011;40965;52.368;9.712;2023-02-19T08:20:57;3.97;;;3.13;;
55067;SDS011;40965;52.368;9.712;2023-02-19T08:23:25;3.75;;;2.90;;
55067;SDS011;40965;52.368;9.712;2023-02-19T08:25:55;4.70;;;3.83;;
55067;SDS011;40965;52.368;9.712;2023-02-19T08:28:24;2.60;;;2.10;;
55067;SDS011;40965;52.368;9.712;2023-02-19T08:30:50;12.45;;;5.55;;
55067;SDS011;40965;52.368;9.712;2023-02-19T08:33:19;11.45;;;5.38;;
55067;SDS011;40965;52.368;9.712;2023-02-19T08:35:46;13.93;;;6.32;;
55067;SDS011;40965;52.368;9.712;2023-02-19T08:38:13;10.65;;;4.97;;
55067;SDS011;40965;52.368;9.712;2023-02-19T08:40:40;12.43;;;5.13;;
55067;SDS011;40965;52.368;9.712;2023-02-19T08:43:08;12.65;;;5.22;;
55067;SDS011;40965;52.368;9.712;2023-02-19T08:45:38;13.68;;;6.50;;
55067;SDS011;40965;52.368;9.712;2023-02-19T08:48:07;6.30;;;4.00;;
55067;SDS011;40965;52.368;9.712;2023-02-19T08:50:35;7.13;;;3.83;;
55067;SDS011;40965;52.368;9.712;2023-02-19T08:53:04;8.20;;;4.68;;
55067;SDS011;40965;52.368;9.712;2023-02-19T08:55:31;6.78;;;4.20;;
55067;SDS011;40965;52.368;9.712;2023-02-19T08:58:00;6.30;;;3.75;;
55067;SDS011;40965;52.368;9.712;2023-02-19T09:00:26;4.60;;;3.78;;
55067;SDS011;40965;52.368;9.712;2023-02-19T09:02:53;5.40;;;3.58;;
55067;SDS011;40965;52.368;9.712;2023-02-19T09:05:19;10.18;;;5.65;;
55067;SDS011;40965;52.368;9.712;2023-02-19T09:07:46;7.95;;;4.50;;
55067;SDS011;40965;52.368;9.712;2023-02-19T09:10:12;5.13;;;3.30;;
55067;SDS011;40965;52.368;9.712;2023-02-19T09:12:39;3.35;;;2.58;;
55067;SDS011;40965;52.368;9.712;2023-02-19T09:15:06;13.20;;;5.95;;
55067;SDS011;40965;52.368;9.712;2023-02-19T09:17:34;11.95;;;6.10;;
55067;SDS011;40965;52.368;9.712;2023-02-19T09:20:00;12.38;;;5.68;;
55067;SDS011;40965;52.368;9.712;2023-02-19T09:22:27;14.52;;;7.75;;
55067;SDS011;40965;52.368;9.712;2023-02-19T09:24:54;12.35;;;7.05;;
55067;SDS011;40965;52.368;9.712;2023-02-19T09:27:20;6.53;;;4.78;;
55067;SDS011;40965;52.368;9.712;2023-02-19T09:29:48;6.88;;;4.05;;
55067;SDS011;40965;52.368;9.712;2023-02-19T09:32:15;10.02;;;6.38;;
55067;SDS011;40965;52.368;9.712;2023-02-19T09:34:42;19.02;;;10.32;;
55067;SDS011;40965;52.368;9.712;2023-02-19T09:37:08;12.75;;;6.53;;
55067;SDS011;40965;52.368;9.712;2023-02-19T09:39:34;7.53;;;4.60;;
55067;SDS011;40965;52.368;9.712;2023-02-19T09:42:12;8.40;;;5.35;;
55067;SDS011;40965;52.368;9.712;2023-02-19T09:44:45;8.13;;;4.07;;
55067;SDS011;40965;52.368;9.712;2023-02-19T09:47:22;5.72;;;4.05;;
55067;SDS011;40965;52.368;9.712;2023-02-19T09:49:53;7.72;;;3.85;;
55067;SDS011;40965;52.368;9.712;2023-02-19T09:52:30;9.52;;;5.03;;
55067;SDS011;40965;52.368;9.712;2023-02-19T09:57:34;3.90;;;2.95;;
55067;SDS011;40965;52.368;9.712;2023-02-19T10:00:05;5.95;;;3.80;;
55067;SDS011;40965;52.368;9.712;2023-02-19T10:03:04;3.85;;;2.80;;
55067;SDS011;40965;52.368;9.712;2023-02-19T10:05:37;3.00;;;2.80;;
55067;SDS011;40965;52.368;9.712;2023-02-19T10:08:06;4.55;;;3.40;;
55067;SDS011;40965;52.368;9.712;2023-02-19T10:10:38;4.43;;;3.17;;
55067;SDS011;40965;52.368;9.712;2023-02-19T10:13:10;8.95;;;3.75;;
55067;SDS011;40965;52.368;9.712;2023-02-19T10:15:50;5.20;;;3.05;;
55067;SDS011;40965;52.368;9.712;2023-02-19T10:18:23;5.88;;;2.85;;
55067;SDS011;40965;52.368;9.712;2023-02-19T10:20:56;3.55;;;2.45;;
55067;SDS011;40965;52.368;9.712;2023-02-19T10:23:23;3.17;;;1.95;;
55067;SDS011;40965;52.368;9.712;2023-02-19T10:25:55;2.03;;;1.83;;
55067;SDS011;40965;52.368;9.712;2023-02-19T10:30:27;4.50;;;2.72;;
55067;SDS011;40965;52.368;9.712;2023-02-19T10:33:00;3.47;;;1.17;;
55067;SDS011;40965;52.368;9.712;2023-02-19T10:35:37;2.47;;;1.70;;
55067;SDS011;40965;52.368;9.712;2023-02-19T10:38:18;2.13;;;1.65;;
55067;SDS011;40965;52.368;9.712;2023-02-19T10:40:51;4.70;;;2.08;;
55067;SDS011;40965;52.368;9.712;2023-02-19T10:43:30;3.30;;;1.77;;
55067;SDS011;40965;52.368;9.712;2023-02-19T10:46:05;3.25;;;1.73;;
55067;SDS011;40965;52.368;9.712;2023-02-19T10:48:45;5.18;;;1.73;;
55067;SDS011;40965;52.368;9.712;2023-02-19T10:51:36;3.25;;;2.03;;
55067;SDS011;40965;52.368;9.712;2023-02-19T10:54:06;4.75;;;2.00;;
55067;SDS011;40965;52.368;9.712;2023-02-19T10:56:44;1.92;;;1.65;;
55067;SDS011;40965;52.368;9.712;2023-02-19T11:01:58;3.33;;;2.15;;
55067;SDS011;40965;52.368;9.712;2023-02-19T11:04:30;3.88;;;2.72;;
55067;SDS011;40965;52.368;9.712;2023-02-19T11:07:09;8.15;;;4.93;;
55067;SDS011;40965;52.368;9.712;2023-02-19T11:09:43;4.55;;;3.95;;
55067;SDS011;40965;52.368;9.712;2023-02-19T11:12:13;10.65;;;5.70;;
55067;SDS011;40965;52.368;9.712;2023-02-19T11:14:48;5.22;;;3.25;;
55067;SDS011;40965;52.368;9.712;2023-02-19T11:17:25;5.28;;;2.55;;
55067;SDS011;40965;52.368;9.712;2023-02-19T11:19:54;5.85;;;1.55;;
55067;SDS011;40965;52.368;9.712;2023-02-19T11:22:34;2.97;;;1.40;;
55067;SDS011;40965;52.368;9.712;2023-02-19T11:27:57;6.53;;;1.65;;
55067;SDS011;40965;52.368;9.712;2023-02-19T11:30:49;1.77;;;1.40;;
55067;SDS011;40965;52.368;9.712;2023-02-19T11:33:18;3.38;;;2.33;;
55067;SDS011;40965;52.368;9.712;2023-02-19T11:35:53;3.00;;;1.35;;
55067;SDS011;40965;52.368;9.712;2023-02-19T11:38:41;1.80;;;1.45;;
55067;SDS011;40965;52.368;9.712;2023-02-19T11:41:10;2.55;;;1.58;;
55067;SDS011;40965;52.368;9.712;2023-02-19T11:46:47;2.58;;;1.10;;
55067;SDS011;40965;52.368;9.712;2023-02-19T11:50:02;3.85;;;0.73;;
55067;SDS011;40965;52.368;9.712;2023-02-19T11:52:51;1.38;;;0.88;;
55067;SDS011;40965;52.368;9.712;2023-02-19T12:01:41;4.72;;;0.98;;
55067;SDS011;40965;52.368;9.712;2023-02-19T12:10:58;4.40;;;0.93;;
55067;SDS011;40965;52.368;9.712;2023-02-19T12:14:08;1.55;;;0.90;;
55067;SDS011;40965;52.368;9.712;2023-02-19T12:17:33;1.65;;;0.85;;
55067;SDS011;40965;52.368;9.712;2023-02-19T12:20:25;2.05;;;0.85;;
55067;SDS011;40965;52.368;9.712;2023-02-19T12:25:54;1.58;;;1.20;;
55067;SDS011;40965;52.368;9.712;2023-02-19T12:28:47;1.33;;;1.08;;
55067;SDS011;40965;52.368;9.712;2023-02-19T12:40:45;3.42;;;1.05;;
55067;SDS011;40965;52.368;9.712;2023-02-19T12:43:34;0.60;;;0.60;;
55067;SDS011;40965;52.368;9.712;2023-02-19T12:46:16;3.95;;;0.82;;
55067;SDS011;40965;52.368;9.712;2023-02-19T12:48:56;2.30;;;0.88;;
55067;SDS011;40965;52.368;9.712;2023-02-19T12:59:28;2.35;;;1.73;;
55067;SDS011;40965;52.368;9.712;2023-02-19T13:05:05;3.75;;;0.68;;
55067;SDS011;40965;52.368;9.712;2023-02-19T13:07:49;3.25;;;0.63;;
55067;SDS011;40965;52.368;9.712;2023-02-19T13:13:11;1.70;;;0.50;;
55067;SDS011;40965;52.368;9.712;2023-02-19T13:15:52;0.90;;;0.30;;
55067;SDS011;40965;52.368;9.712;2023-02-19T13:21:02;3.97;;;1.02;;
55067;SDS011;40965;52.368;9.712;2023-02-19T13:23:32;2.30;;;1.08;;
55067;SDS011;40965;52.368;9.712;2023-02-19T13:26:26;3.47;;;1.65;;
55067;SDS011;40965;52.368;9.712;2023-02-19T13:29:13;1.70;;;1.50;;
55067;SDS011;40965;52.368;9.712;2023-02-19T13:34:55;1.45;;;0.93;;
55067;SDS011;40965;52.368;9.712;2023-02-19T13:37:43;3.47;;;1.27;;
55067;SDS011;40965;52.368;9.712;2023-02-19T13:40:18;6.88;;;1.00;;
55067;SDS011;40965;52.368;9.712;2023-02-19T13:43:07;2.38;;;0.65;;
55067;SDS011;40965;52.368;9.712;2023-02-19T13:46:05;1.80;;;1.13;;
55067;SDS011;40965;52.368;9.712;2023-02-19T13:48:36;1.33;;;1.15;;
55067;SDS011;40965;52.368;9.712;2023-02-19T14:02:04;2.13;;;0.68;;
55067;SDS011;40965;52.368;9.712;2023-02-19T14:04:59;0.85;;;0.57;;
55067;SDS011;40965;52.368;9.712;2023-02-19T14:07:48;5.55;;;0.80;;
55067;SDS011;40965;52.368;9.712;2023-02-19T14:16:31;3.50;;;0.77;;
55067;SDS011;40965;52.368;9.712;2023-02-19T14:19:13;1.35;;;0.68;;
55067;SDS011;40965;52.368;9.712;2023-02-19T14:28:05;3.38;;;0.77;;
55067;SDS011;40965;52.368;9.712;2023-02-19T14:31:07;4.70;;;1.13;;
55067;SDS011;40965;52.368;9.712;2023-02-19T14:34:04;3.63;;;1.23;;
55067;SDS011;40965;52.368;9.712;2023-02-19T14:36:52;2.40;;;1.00;;
55067;SDS011;40965;52.368;9.712;2023-02-19T14:39:23;1.45;;;0.73;;
55067;SDS011;40965;52.368;9.712;2023-02-19T14:42:01;2.15;;;0.70;;
55067;SDS011;40965;52.368;9.712;2023-02-19T14:44:48;2.10;;;1.13;;
55067;SDS011;40965;52.368;9.712;2023-02-19T14:47:27;2.58;;;1.10;;
55067;SDS011;40965;52.368;9.712;2023-02-19T14:50:00;1.33;;;0.95;;
55067;SDS011;40965;52.368;9.712;2023-02-19T14:52:35;2.33;;;1.00;;
55067;SDS011;40965;52.368;9.712;2023-02-19T14:55:31;1.88;;;1.67;;
55067;SDS011;40965;52.368;9.712;2023-02-19T14:58:02;2.75;;;1.23;;
55067;SDS011;40965;52.368;9.712;2023-02-19T15:00:33;2.25;;;0.90;;
55067;SDS011;40965;52.368;9.712;2023-02-19T15:03:03;3.60;;;1.13;;
55067;SDS011;40965;52.368;9.712;2023-02-19T15:05:31;2.63;;;1.60;;
55067;SDS011;40965;52.368;9.712;2023-02-19T15:08:11;4.55;;;1.90;;
55067;SDS011;40965;52.368;9.712;2023-02-19T15:10:43;1.27;;;1.02;;
55067;SDS011;40965;52.368;9.712;2023-02-19T15:13:10;4.20;;;1.60;;
55067;SDS011;40965;52.368;9.712;2023-02-19T15:15:44;2.75;;;1.73;;
55067;SDS011;40965;52.368;9.712;2023-02-19T15:18:21;7.32;;;3.75;;
55067;SDS011;40965;52.368;9.712;2023-02-19T15:20:51;2.85;;;2.47;;
55067;SDS011;40965;52.368;9.712;2023-02-19T15:23:27;2.30;;;1.98;;
55067;SDS011;40965;52.368;9.712;2023-02-19T15:25:56;2.50;;;2.30;;
55067;SDS011;40965;52.368;9.712;2023-02-19T15:31:13;3.30;;;3.10;;
55067;SDS011;40965;52.368;9.712;2023-02-19T15:33:47;4.07;;;2.40;;
55067;SDS011;40965;52.368;9.712;2023-02-19T15:36:22;7.88;;;4.53;;
55067;SDS011;40965;52.368;9.712;2023-02-19T15:38:59;3.90;;;3.05;;
55067;SDS011;40965;52.368;9.712;2023-02-19T15:41:29;5.88;;;3.70;;
55067;SDS011;40965;52.368;9.712;2023-02-19T15:44:09;2.15;;;2.03;;
55067;SDS011;40965;52.368;9.712;2023-02-19T15:46:58;3.13;;;2.20;;
55067;SDS011;40965;52.368;9.712;2023-02-19T15:52:16;5.30;;;3.00;;
55067;SDS011;40965;52.368;9.712;2023-02-19T15:55:01;6.35;;;2.55;;
55067;SDS011;40965;52.368;9.712;2023-02-19T15:57:43;8.52;;;5.13;;
55067;SDS011;40965;52.368;9.712;2023-02-19T16:00:27;3.42;;;3.08;;
55067;SDS011;40965;52.368;9.712;2023-02-19T16:03:04;8.57;;;4.63;;
55067;SDS011;40965;52.368;9.712;2023-02-19T16:05:36;4.32;;;3.45;;
55067;SDS011;40965;52.368;9.712;2023-02-19T16:10:36;3.30;;;3.05;;
55067;SDS011;40965;52.368;9.712;2023-02-19T16:13:04;4.45;;;3.10;;
55067;SDS011;40965;52.368;9.712;2023-02-19T16:15:37;4.80;;;3.05;;
55067;SDS011;40965;52.368;9.712;2023-02-19T16:18:04;6.85;;;4.03;;
55067;SDS011;40965;52.368;9.712;2023-02-19T16:20:32;3.60;;;3.15;;
55067;SDS011;40965;52.368;9.712;2023-02-19T16:23:04;4.18;;;3.50;;
55067;SDS011;40965;52.368;9.712;2023-02-19T16:25:39;6.18;;;3.58;;
55067;SDS011;40965;52.368;9.712;2023-02-19T16:28:12;6.47;;;5.30;;
55067;SDS011;40965;52.368;9.712;2023-02-19T16:30:56;5.22;;;4.07;;
55067;SDS011;40965;52.368;9.712;2023-02-19T16:33:43;4.55;;;3.63;;
55067;SDS011;40965;52.368;9.712;2023-02-19T16:39:17;5.40;;;3.67;;
55067;SDS011;40965;52.368;9.712;2023-02-19T16:46:52;4.57;;;3.30;;
55067;SDS011;40965;52.368;9.712;2023-02-19T16:49:22;3.28;;;3.00;;
55067;SDS011;40965;52.368;9.712;2023-02-19T16:51:50;4.32;;;3.92;;
55067;SDS011;40965;52.368;9.712;2023-02-19T16:54:18;3.33;;;3.05;;
55067;SDS011;40965;52.368;9.712;2023-02-19T16:56:45;9.32;;;3.70;;
55067;SDS011;40965;52.368;9.712;2023-02-19T16:59:11;6.35;;;3.28;;
55067;SDS011;40965;52.368;9.712;2023-02-19T17:01:38;7.20;;;4.20;;
55067;SDS011;40965;52.368;9.712;2023-02-19T17:04:06;5.85;;;5.10;;
55067;SDS011;40965;52.368;9.712;2023-02-19T17:06:36;10.45;;;5.68;;
55067;SDS011;40965;52.368;9.712;2023-02-19T17:09:04;6.05;;;4.25;;
55067;SDS011;40965;52.368;9.712;2023-02-19T17:11:33;6.82;;;5.00;;
55067;SDS011;40965;52.368;9.712;2023-02-19T17:14:01;8.75;;;4.97;;
55067;SDS011;40965;52.368;9.712;2023-02-19T17:16:28;8.25;;;5.70;;
55067;SDS011;40965;52.368;9.712;2023-02-19T17:19:16;5.22;;;4.75;;
55067;SDS011;40965;52.368;9.712;2023-02-19T17:21:46;8.07;;;6.55;;
55067;SDS011;40965;52.368;9.712;2023-02-19T17:24:12;8.93;;;5.68;;
55067;SDS011;40965;52.368;9.712;2023-02-19T17:26:40;7.47;;;5.07;;
55067;SDS011;40965;52.368;9.712;2023-02-19T17:29:06;8.27;;;4.93;;
55067;SDS011;40965;52.368;9.712;2023-02-19T17:31:38;4.88;;;3.47;;
55067;SDS011;40965;52.368;9.712;2023-02-19T17:34:05;6.18;;;4.03;;
55067;SDS011;40965;52.368;9.712;2023-02-19T17:36:32;7.13;;;4.45;;
55067;SDS011;40965;52.368;9.712;2023-02-19T17:39:02;6.53;;;4.20;;